Time;durP1;ratioP1;P1;durP2;ratioP2;P2;SDS_P1;SDS_P2;PMS_P1;PMS_P2;Temp;Humidity;BMP_temperature;BMP_pressure;BME280_temperature;BME280_humidity;BME280_pressure;Samples;Min_cycle;Max_cycle;Signal;HPM_P1;HPM_P2
2021/12/23 00:01:01;;;;;;;26.83;14.87;;;-4.40;99.90;;;-3.46;100.00;98406.47;5044139;28;21069;-80
2021/12/23 00:03:31;;;;;;;28.33;13.63;;;-4.30;99.90;;;-3.40;100.00;98401.03;5045978;28;20468;-80
2021/12/23 00:06:01;;;;;;;27.33;11.83;;;-4.20;99.90;;;-3.40;100.00;98401.03;5047313;28;20895;-80
2021/12/23 00:08:31;;;;;;;27.60;12.73;;;-4.10;99.90;;;-3.61;100.00;98391.13;5042590;28;20459;-79
2021/12/23 00:11:00;;;;;;;28.07;14.50;;;-4.10;99.90;;;-3.62;100.00;98392.06;5053669;28;20538;-81
2021/12/23 00:13:29;;;;;;;24.70;12.00;;;-4.10;99.90;;;-3.59;100.00;98388.50;5054816;28;20449;-80
2021/12/23 00:16:04;;;;;;;23.20;11.57;;;-4.10;99.90;;;-3.56;100.00;98384.03;5052554;28;20448;-80
2021/12/23 00:18:49;;;;;;;26.23;12.50;;;-4.20;99.90;;;-3.53;100.00;98374.53;5052521;28;20501;-80
2021/12/23 00:24:04;;;;;;;29.60;13.83;;;-4.30;99.90;;;-3.56;100.00;98368.72;5057346;28;20468;-80
2021/12/23 00:26:34;;;;;;;21.97;11.60;;;-4.30;99.90;;;-3.68;100.00;98366.88;5050484;28;20527;-80
2021/12/23 00:29:03;;;;;;;24.60;12.67;;;-4.50;99.90;;;-3.74;100.00;98357.03;5043494;28;20461;-80
2021/12/23 00:31:34;;;;;;;20.03;11.80;;;-4.40;99.90;;;-3.78;100.00;98354.72;5040277;28;21045;-80
2021/12/23 00:34:05;;;;;;;27.50;12.00;;;-4.50;99.90;;;-3.78;100.00;98347.06;5048410;28;20851;-80
2021/12/23 00:36:36;;;;;;;21.67;10.80;;;-4.60;99.90;;;-3.74;100.00;98348.53;5045596;28;20946;-80
2021/12/23 00:39:08;;;;;;;21.77;11.97;;;-4.50;99.90;;;-3.72;100.00;98344.16;5044363;28;20454;-79
2021/12/23 00:41:40;;;;;;;18.60;9.83;;;-4.60;99.90;;;-3.69;100.00;98355.03;5049480;28;20460;-79
2021/12/23 00:44:11;;;;;;;26.40;12.50;;;-4.50;99.90;;;-3.72;100.00;98355.22;5047914;28;21061;-80
2021/12/23 00:46:42;;;;;;;21.30;10.63;;;-4.50;99.90;;;-3.71;100.00;98341.50;5046679;28;20503;-80
2021/12/23 00:49:13;;;;;;;26.57;12.30;;;-4.50;99.90;;;-3.76;100.00;98346.09;5050766;28;20465;-80
2021/12/23 00:51:43;;;;;;;24.73;12.17;;;-4.60;99.90;;;-3.74;100.00;98344.25;5048642;28;20562;-80
2021/12/23 00:54:12;;;;;;;22.40;11.63;;;-4.60;99.90;;;-3.68;100.00;98340.53;5049035;28;20453;-80
2021/12/23 00:56:48;;;;;;;26.40;12.63;;;-4.50;99.90;;;-3.62;100.00;98340.97;5045686;28;20968;-80
2021/12/23 00:59:17;;;;;;;18.40;10.90;;;-4.40;99.90;;;-3.67;100.00;98326.81;5046622;28;20488;-80
2021/12/23 01:01:48;;;;;;;24.43;11.40;;;-4.50;99.90;;;-3.68;100.00;98331.09;5047210;28;20465;-80
2021/12/23 01:04:20;;;;;;;21.17;11.07;;;-4.50;99.90;;;-3.66;100.00;98316.53;5048418;28;20425;-79
2021/12/23 01:06:51;;;;;;;28.13;12.40;;;-4.30;99.90;;;-3.64;100.00;98319.78;5047464;28;21072;-79
2021/12/23 01:09:23;;;;;;;24.10;11.77;;;-4.40;99.90;;;-3.65;100.00;98313.06;5049675;28;20457;-80
2021/12/23 01:11:54;;;;;;;19.53;10.70;;;-4.50;99.90;;;-3.63;100.00;98301.00;5052974;28;20981;-80
2021/12/23 01:14:29;;;;;;;22.50;11.47;;;-4.40;99.90;;;-3.59;100.00;98294.81;5047685;28;20449;-79
2021/12/23 01:17:29;;;;;;;22.93;11.33;;;-4.30;99.90;;;-3.62;100.00;98292.44;5049789;28;20977;-80
2021/12/23 01:20:02;;;;;;;21.50;11.53;;;-4.40;99.90;;;-3.64;100.00;98294.25;5048725;28;20469;-80
2021/12/23 01:22:33;;;;;;;19.07;10.90;;;-4.50;99.90;;;-3.66;100.00;98287.59;5049241;28;20988;-80
2021/12/23 01:25:04;;;;;;;23.00;11.60;;;-4.50;99.90;;;-3.67;100.00;98286.78;5048534;28;20505;-80
2021/12/23 01:27:33;;;;;;;30.63;12.80;;;-4.50;99.90;;;-3.63;100.00;98287.41;5053060;28;20510;-80
2021/12/23 01:30:04;;;;;;;22.03;10.60;;;-4.40;99.90;;;-3.61;100.00;98291.50;5046711;28;20469;-79
2021/12/23 01:32:33;;;;;;;24.00;11.70;;;-4.40;99.90;;;-3.56;100.00;98284.41;5049075;28;20497;-79
2021/12/23 01:35:05;;;;;;;28.77;12.60;;;-4.30;99.90;;;-3.50;100.00;98284.91;5038937;28;20461;-80
2021/12/23 01:37:36;;;;;;;22.80;11.33;;;-4.30;99.90;;;-3.46;100.00;98283.81;5043971;28;20534;-80
2021/12/23 01:40:10;;;;;;;22.83;12.03;;;-4.20;99.90;;;-3.40;100.00;98286.00;5049160;28;20441;-80
2021/12/23 01:42:40;;;;;;;23.87;12.37;;;-4.20;99.90;;;-3.40;100.00;98293.69;5041777;28;20461;-80
2021/12/23 01:45:12;;;;;;;25.80;12.40;;;-4.20;99.90;;;-3.41;100.00;98289.47;5045986;28;20524;-80
2021/12/23 01:47:43;;;;;;;24.73;11.60;;;-4.20;99.90;;;-3.48;100.00;98285.66;5045194;28;20431;-80
2021/12/23 01:50:19;;;;;;;20.77;11.07;;;-4.20;99.90;;;-3.55;100.00;98287.78;5048851;28;20458;-80
2021/12/23 01:52:49;;;;;;;23.27;11.10;;;-4.30;99.90;;;-3.54;100.00;98271.53;5048157;28;20558;-80
2021/12/23 01:55:19;;;;;;;22.60;10.80;;;-4.30;99.90;;;-3.53;100.00;98272.34;5047443;28;20484;-79
2021/12/23 01:57:51;;;;;;;23.20;11.37;;;-4.30;99.90;;;-3.49;100.00;98268.69;5048221;28;21025;-80
2021/12/23 02:00:25;;;;;;;20.80;11.77;;;-4.30;99.90;;;-3.45;100.00;98262.47;5047619;28;20547;-80
2021/12/23 02:02:57;;;;;;;22.70;12.40;;;-4.20;99.90;;;-3.43;100.00;98258.06;5046195;28;20469;-80
2021/12/23 02:05:30;;;;;;;24.27;12.13;;;-4.20;99.90;;;-3.43;100.00;98258.06;5046362;28;20464;-79
2021/12/23 02:08:00;;;;;;;24.20;12.10;;;-4.20;99.90;;;-3.48;100.00;98266.03;5042297;28;20538;-80
2021/12/23 02:10:30;;;;;;;21.60;11.43;;;-4.40;99.90;;;-3.58;100.00;98264.97;5040940;28;20470;-79
2021/12/23 02:13:00;;;;;;;24.73;12.50;;;-4.50;99.90;;;-3.60;100.00;98254.81;5047538;28;20887;-80
2021/12/23 02:15:29;;;;;;;23.30;11.57;;;-4.50;99.90;;;-3.72;100.00;98263.25;5045226;28;20462;-80
2021/12/23 02:17:58;;;;;;;24.50;11.67;;;-4.70;99.90;;;-3.76;100.00;98266.09;5048689;28;20524;-80
2021/12/23 02:20:35;;;;;;;21.10;11.77;;;-4.70;99.90;;;-3.77;100.00;98252.50;5046759;28;20522;-79
2021/12/23 02:23:09;;;;;;;25.20;12.60;;;-4.70;99.90;;;-3.76;100.00;98251.59;5044212;28;20987;-79
2021/12/23 02:25:40;;;;;;;21.23;11.43;;;-4.70;99.90;;;-3.82;100.00;98248.59;5049215;28;20501;-79
2021/12/23 02:28:11;;;;;;;25.97;11.83;;;-4.70;99.90;;;-3.83;100.00;98257.97;5049577;28;20877;-79
2021/12/23 02:30:41;;;;;;;22.87;11.30;;;-4.70;99.90;;;-3.85;100.00;98253.88;5039437;28;20454;-80
2021/12/23 02:33:11;;;;;;;23.70;11.47;;;-4.70;99.90;;;-3.95;100.00;98238.25;5048392;28;20903;-80
2021/12/23 02:35:43;;;;;;;19.60;10.20;;;-4.80;99.90;;;-4.01;100.00;98243.75;5045580;28;20489;-79
2021/12/23 02:38:12;;;;;;;19.43;10.87;;;-5.00;99.90;;;-3.98;100.00;98246.13;5042856;28;20941;-79
2021/12/23 02:40:44;;;;;;;22.93;12.77;;;-4.80;99.90;;;-3.98;100.00;98246.13;5043555;28;20812;-79
2021/12/23 02:43:17;;;;;;;20.13;10.77;;;-4.80;99.90;;;-3.95;100.00;98233.16;5047443;28;20766;-80
2021/12/23 02:45:50;;;;;;;22.33;11.20;;;-4.70;99.90;;;-3.95;100.00;98227.22;5047630;28;20457;-79
2021/12/23 02:48:24;;;;;;;19.50;9.97;;;-4.70;99.90;;;-3.95;100.00;98235.72;5048612;28;20879;-80
2021/12/23 02:50:57;;;;;;;22.17;11.73;;;-4.80;99.90;;;-3.98;100.00;98222.31;5046556;28;20493;-80
2021/12/23 02:53:27;;;;;;;22.60;10.70;;;-4.80;99.90;;;-4.07;100.00;98231.34;5040896;28;20529;-80
2021/12/23 02:56:00;;;;;;;22.67;11.90;;;-4.90;99.90;;;-4.10;100.00;98223.88;5043553;28;20973;-80
2021/12/23 02:58:30;;;;;;;28.90;12.40;;;-4.90;99.90;;;-4.09;100.00;98222.97;5043861;28;20476;-80
2021/12/23 03:01:02;;;;;;;25.73;11.43;;;-4.90;99.90;;;-4.12;100.00;98223.16;5046836;28;20509;-80
2021/12/23 03:03:33;;;;;;;19.53;11.97;;;-4.90;99.90;;;-4.09;100.00;98217.84;5046050;28;20461;-80
2021/12/23 03:06:04;;;;;;;26.63;10.10;;;-4.90;99.90;;;-4.19;100.00;98212.47;5044535;28;20492;-80
2021/12/23 03:08:36;;;;;;;23.10;12.73;;;-5.00;99.90;;;-4.20;100.00;98215.16;5044764;28;20450;-80
2021/12/23 03:11:09;;;;;;;20.23;10.57;;;-5.10;99.90;;;-4.23;100.00;98211.03;5047800;28;21013;-80
2021/12/23 03:13:40;;;;;;;22.20;11.77;;;-5.10;99.90;;;-4.20;100.00;98205.72;5043360;28;20471;-79
2021/12/23 03:16:12;;;;;;;24.83;11.20;;;-5.00;99.90;;;-4.11;100.00;98204.38;5042266;28;20518;-80
2021/12/23 03:18:42;;;;;;;24.97;12.20;;;-4.90;99.90;;;-4.14;100.00;98195.19;5050927;28;20428;-79
2021/12/23 03:21:13;;;;;;;19.77;10.67;;;-5.00;99.90;;;-4.16;100.00;98189.31;5044066;28;20439;-80
2021/12/23 03:23:43;;;;;;;22.70;10.60;;;-4.90;99.90;;;-4.19;100.00;98186.13;5050762;28;20684;-80
2021/12/23 03:26:12;;;;;;;26.80;13.07;;;-5.00;99.90;;;-4.18;100.00;98191.16;5045524;28;20446;-80
2021/12/23 03:28:41;;;;;;;21.57;11.97;;;-5.00;99.90;;;-4.17;100.00;98195.38;5047654;28;20522;-80
2021/12/23 03:31:11;;;;;;;21.30;10.60;;;-4.90;99.90;;;-4.13;100.00;98189.13;5047376;28;20496;-80
2021/12/23 03:33:40;;;;;;;20.63;11.40;;;-4.90;99.90;;;-4.17;100.00;98184.34;5049498;28;21295;-80
2021/12/23 03:36:10;;;;;;;19.10;10.70;;;-5.10;99.90;;;-4.23;100.00;98189.78;5047396;28;21032;-79
2021/12/23 03:38:41;;;;;;;20.87;11.27;;;-5.10;99.90;;;-4.24;100.00;98193.25;5044684;28;20437;-80
2021/12/23 03:41:10;;;;;;;26.03;12.10;;;-5.10;99.90;;;-4.26;100.00;98188.25;5047144;28;20463;-80
2021/12/23 03:43:41;;;;;;;18.63;9.97;;;-5.10;99.90;;;-4.22;100.00;98181.22;5045143;28;20442;-80
2021/12/23 03:46:11;;;;;;;20.37;11.87;;;-4.90;99.90;;;-4.18;100.00;98173.28;5042973;28;20438;-80
2021/12/23 03:48:41;;;;;;;22.13;11.27;;;-4.90;99.90;;;-4.21;100.00;98167.56;5046857;28;20435;-80
2021/12/23 03:51:11;;;;;;;25.00;10.80;;;-5.00;99.90;;;-4.21;100.00;98167.56;5051920;28;20455;-80
2021/12/23 03:53:42;;;;;;;18.70;10.63;;;-5.00;99.90;;;-4.13;100.00;98165.38;5048516;28;20501;-80
2021/12/23 03:56:14;;;;;;;19.50;10.30;;;-4.90;99.90;;;-4.14;100.00;98153.50;5047503;28;20543;-80
2021/12/23 03:58:42;;;;;;;24.60;11.77;;;-4.90;99.90;;;-4.12;100.00;98159.34;5044198;28;21096;-80
2021/12/23 04:01:12;;;;;;;20.43;11.30;;;-4.80;99.90;;;-4.09;100.00;98144.66;5046075;28;20466;-80
2021/12/23 04:03:42;;;;;;;18.23;10.63;;;-4.70;99.90;;;-4.04;100.00;98144.38;5037736;28;20450;-80
2021/12/23 04:06:13;;;;;;;19.73;10.67;;;-4.70;99.90;;;-4.03;100.00;98143.47;5046163;28;20462;-80
2021/12/23 04:08:43;;;;;;;24.50;10.50;;;-4.70;99.90;;;-3.99;100.00;98141.53;5047384;28;20469;-80
2021/12/23 04:11:13;;;;;;;20.17;10.10;;;-4.70;99.90;;;-3.94;100.00;98135.22;5045990;28;21846;-80
2021/12/23 04:13:43;;;;;;;26.40;11.97;;;-4.60;99.90;;;-3.93;100.00;98128.41;5047674;28;20649;-80
2021/12/23 04:16:13;;;;;;;22.90;11.37;;;-4.70;99.90;;;-3.90;100.00;98118.81;5042827;28;20442;-80
2021/12/23 04:18:46;;;;;;;23.10;11.00;;;-4.60;99.90;;;-3.84;100.00;98120.97;5048146;28;20489;-79
2021/12/23 04:21:15;;;;;;;24.37;10.37;;;-4.50;99.90;;;-3.78;100.00;98120.59;5047328;28;20416;-80
2021/12/23 04:23:47;;;;;;;21.60;10.80;;;-4.40;99.90;;;-3.74;100.00;98111.81;5048495;28;20450;-80
2021/12/23 04:26:18;;;;;;;15.90;9.60;;;-4.40;99.90;;;-3.71;100.00;98108.25;5048155;28;20447;-80
2021/12/23 04:28:48;;;;;;;22.40;10.67;;;-4.40;99.90;;;-3.70;100.00;98117.53;5050424;28;20466;-80
2021/12/23 04:31:20;;;;;;;29.60;12.70;;;-4.40;99.90;;;-3.71;100.00;98124.38;5042248;28;20505;-80
2021/12/23 04:33:53;;;;;;;20.03;10.20;;;-4.40;99.90;;;-3.71;100.00;98126.13;5048217;28;20534;-80
2021/12/23 04:36:26;;;;;;;21.80;11.87;;;-4.40;99.90;;;-3.71;100.00;98123.56;5044467;28;20535;-80
2021/12/23 04:39:00;;;;;;;19.57;10.40;;;-4.20;99.90;;;-3.71;100.00;98124.38;5035877;28;20495;-80
2021/12/23 04:41:31;;;;;;;25.77;11.33;;;-4.40;99.90;;;-3.68;100.00;98120.84;5037646;28;20457;-80
2021/12/23 04:44:02;;;;;;;21.17;11.63;;;-4.40;99.90;;;-3.68;100.00;98113.97;5040670;28;20941;-80
2021/12/23 04:46:31;;;;;;;25.77;11.00;;;-4.30;99.90;;;-3.63;100.00;98113.69;5045458;28;20521;-79
2021/12/23 04:49:00;;;;;;;21.80;11.93;;;-4.30;99.90;;;-3.61;100.00;98110.13;5045728;28;20505;-80
2021/12/23 04:51:30;;;;;;;20.23;11.63;;;-4.30;99.90;;;-3.59;100.00;98115.97;5039545;28;20461;-80
2021/12/23 04:54:03;;;;;;;21.60;11.00;;;-4.30;99.90;;;-3.54;100.00;98118.22;5042769;28;20894;-80
2021/12/23 04:56:32;;;;;;;25.37;12.17;;;-4.20;99.90;;;-3.56;100.00;98120.88;5041938;28;20466;-80
2021/12/23 04:59:02;;;;;;;24.97;12.30;;;-4.20;99.90;;;-3.52;100.00;98110.44;5046888;28;20794;-80
2021/12/23 05:01:33;;;;;;;23.93;11.70;;;-4.00;99.90;;;-3.49;100.00;98097.47;5037012;28;20428;-80
2021/12/23 05:04:04;;;;;;;21.87;10.60;;;-4.00;99.90;;;-3.46;100.00;98102.38;5049911;28;20488;-81
2021/12/23 05:06:34;;;;;;;25.10;12.23;;;-4.00;99.90;;;-3.45;100.00;98081.03;5037991;28;20478;-81
2021/12/23 05:09:05;;;;;;;22.10;9.97;;;-4.00;99.90;;;-3.46;100.00;98074.28;5047443;28;20532;-80
2021/12/23 05:11:37;;;;;;;31.03;13.37;;;-4.10;99.90;;;-3.42;100.00;98075.72;5041052;28;20468;-80
2021/12/23 05:14:08;;;;;;;26.83;13.77;;;-4.10;99.90;;;-3.38;100.00;98092.50;5052610;28;20539;-80
2021/12/23 05:16:39;;;;;;;27.83;13.27;;;-4.10;99.90;;;-3.35;100.00;98089.75;5051508;28;20435;-81
2021/12/23 05:19:09;;;;;;;18.27;10.57;;;-4.00;99.90;;;-3.34;100.00;98088.84;5050635;28;20470;-81
2021/12/23 05:21:39;;;;;;;21.30;11.40;;;-3.90;99.90;;;-3.29;100.00;98086.78;5053365;28;20461;-80
2021/12/23 05:24:10;;;;;;;23.20;12.37;;;-3.80;99.90;;;-3.30;100.00;98091.09;5050376;28;20587;-80
2021/12/23 05:26:41;;;;;;;18.90;10.50;;;-3.90;99.90;;;-3.27;100.00;98085.78;5045616;28;20503;-80
2021/12/23 05:29:11;;;;;;;22.40;11.20;;;-4.00;99.90;;;-3.30;100.00;98082.59;5041445;28;20455;-81
2021/12/23 05:31:40;;;;;;;18.60;11.13;;;-4.00;99.90;;;-3.36;100.00;98062.53;5051518;28;20449;-80
2021/12/23 05:34:11;;;;;;;25.47;11.33;;;-4.10;99.90;;;-3.35;100.00;98065.00;5054766;28;21080;-81
2021/12/23 05:36:41;;;;;;;18.70;10.67;;;-4.10;99.90;;;-3.38;100.00;98062.66;5053230;28;20473;-81
2021/12/23 05:39:12;;;;;;;22.33;11.20;;;-4.10;99.90;;;-3.42;100.00;98071.44;5053196;28;20450;-81
2021/12/23 05:41:42;;;;;;;17.83;10.30;;;-4.20;99.90;;;-3.40;100.00;98056.03;5053274;28;20930;-81
2021/12/23 05:44:12;;;;;;;20.27;11.23;;;-4.10;99.90;;;-3.41;100.00;98067.97;5053289;28;20675;-81
2021/12/23 05:46:41;;;;;;;24.43;11.37;;;-4.10;99.90;;;-3.35;100.00;98059.06;5052591;28;20926;-81
2021/12/23 05:49:13;;;;;;;22.10;11.03;;;-4.00;99.90;;;-3.30;100.00;98057.88;5052816;28;21278;-81
2021/12/23 05:51:43;;;;;;;21.63;10.30;;;-4.00;99.90;;;-3.27;100.00;98054.28;5053096;28;20500;-81
2021/12/23 05:54:14;;;;;;;23.80;12.10;;;-4.00;99.90;;;-3.21;100.00;98041.09;5053068;28;20485;-81
2021/12/23 05:56:44;;;;;;;21.43;11.17;;;-3.90;99.90;;;-3.20;100.00;98052.97;5051459;28;20482;-81
2021/12/23 05:59:16;;;;;;;25.53;12.90;;;-3.90;99.90;;;-3.20;100.00;98051.22;5054996;28;20485;-81
2021/12/23 06:01:49;;;;;;;31.60;13.50;;;-4.00;99.90;;;-3.21;100.00;98041.09;5051413;28;20448;-81
2021/12/23 06:04:19;;;;;;;20.70;11.23;;;-3.90;99.90;;;-3.20;100.00;98041.00;5052465;28;20457;-81
2021/12/23 06:06:48;;;;;;;21.60;11.40;;;-4.00;99.90;;;-3.19;100.00;98040.06;5052798;28;20517;-81
2021/12/23 06:09:20;;;;;;;19.63;10.83;;;-4.00;99.90;;;-3.17;100.00;98029.75;5053199;28;20434;-81
2021/12/23 06:11:51;;;;;;;27.80;13.07;;;-4.00;99.90;;;-3.15;100.00;98031.28;5055755;28;20512;-81
2021/12/23 06:14:22;;;;;;;24.70;13.23;;;-4.00;99.90;;;-3.13;100.00;98026.91;5052715;28;20499;-81
2021/12/23 06:16:52;;;;;;;23.57;12.30;;;-3.80;99.90;;;-3.17;100.00;98033.13;5052705;28;20445;-81
2021/12/23 06:19:23;;;;;;;23.67;12.03;;;-3.90;99.90;;;-3.22;100.00;98022.38;5046686;28;20466;-81
2021/12/23 06:21:54;;;;;;;26.87;11.20;;;-3.90;99.90;;;-3.14;100.00;98026.97;5054839;28;20462;-82
2021/12/23 06:24:25;;;;;;;21.30;10.97;;;-3.90;99.90;;;-3.15;100.00;98021.03;5050524;28;20482;-82
2021/12/23 06:26:56;;;;;;;23.90;11.93;;;-3.80;99.90;;;-3.11;100.00;98019.91;5052470;28;20504;-81
2021/12/23 06:29:25;;;;;;;22.67;11.40;;;-3.70;99.90;;;-3.06;100.00;98022.19;5051736;28;20538;-81
2021/12/23 06:31:56;;;;;;;22.60;12.40;;;-3.70;99.90;;;-3.06;100.00;98014.50;5051640;28;20469;-80
2021/12/23 06:34:26;;;;;;;25.33;11.47;;;-3.70;99.90;;;-3.02;100.00;98005.72;5050778;28;20540;-81
2021/12/23 06:36:56;;;;;;;30.30;11.83;;;-3.70;99.90;;;-2.97;100.00;98005.38;5043118;28;20459;-81
2021/12/23 06:39:27;;;;;;;23.57;11.90;;;-3.70;99.90;;;-2.93;100.00;98002.53;5050603;28;20501;-80
2021/12/23 06:41:57;;;;;;;27.90;12.50;;;-3.60;99.90;;;-2.93;100.00;98012.75;5050638;28;20446;-81
2021/12/23 06:44:26;;;;;;;24.00;11.50;;;-3.60;99.90;;;-2.91;100.00;98010.91;5050724;28;20503;-81
2021/12/23 06:46:55;;;;;;;27.17;11.80;;;-3.60;99.90;;;-2.93;100.00;98014.50;5049247;28;20885;-81
2021/12/23 06:49:26;;;;;;;24.47;12.67;;;-3.60;99.90;;;-2.90;100.00;97996.38;5050111;28;20447;-81
2021/12/23 06:51:56;;;;;;;27.70;11.67;;;-3.60;99.90;;;-2.86;100.00;97993.50;5049538;28;20454;-81
2021/12/23 06:54:28;;;;;;;26.73;12.80;;;-3.60;99.90;;;-2.85;100.00;98000.28;5049917;28;20492;-81
2021/12/23 06:56:58;;;;;;;26.20;13.30;;;-3.50;99.90;;;-2.83;100.00;98006.09;5041322;28;20450;-81
2021/12/23 06:59:28;;;;;;;28.17;12.60;;;-3.50;99.90;;;-2.80;100.00;98013.53;5049634;28;20487;-81
2021/12/23 07:01:57;;;;;;;23.63;13.30;;;-3.50;99.90;;;-2.82;100.00;98002.63;5046537;28;20931;-81
2021/12/23 07:04:33;;;;;;;25.80;12.70;;;-3.50;99.90;;;-2.82;100.00;98006.91;5043588;28;20454;-81
2021/12/23 07:07:09;;;;;;;19.67;11.33;;;-3.60;99.90;;;-2.81;100.00;98001.66;5050057;28;20492;-81
2021/12/23 07:09:43;;;;;;;27.83;12.77;;;-3.50;99.90;;;-2.80;100.00;97999.94;5046223;28;20520;-81
2021/12/23 07:12:14;;;;;;;33.07;13.60;;;-3.50;99.90;;;-2.76;100.00;97998.81;5048568;28;20559;-81
2021/12/23 07:14:45;;;;;;;29.03;13.97;;;-3.50;99.90;;;-2.73;100.00;97999.41;5049744;28;20451;-80
2021/12/23 07:17:16;;;;;;;25.53;12.17;;;-3.40;99.90;;;-2.67;100.00;97995.59;5049870;28;20450;-81
2021/12/23 07:19:46;;;;;;;21.50;12.20;;;-3.30;99.90;;;-2.62;100.00;98001.22;5045753;28;20494;-81
2021/12/23 07:22:16;;;;;;;24.70;12.50;;;-3.30;99.90;;;-2.59;100.00;98001.00;5051531;28;20463;-80
2021/12/23 07:24:47;;;;;;;24.80;12.73;;;-3.20;99.90;;;-2.55;100.00;98005.81;5049853;28;20455;-81
2021/12/23 07:27:16;;;;;;;31.63;14.00;;;-3.10;99.90;;;-2.50;100.00;98000.41;5049372;28;20447;-81
2021/12/23 07:29:47;;;;;;;33.77;13.87;;;-3.00;99.90;;;-2.42;100.00;97997.28;5049541;28;20444;-81
2021/12/23 07:32:17;;;;;;;24.20;13.10;;;-3.10;99.90;;;-2.38;100.00;97993.56;5049275;28;20536;-81
2021/12/23 07:34:47;;;;;;;25.83;13.37;;;-3.00;99.90;;;-2.33;100.00;97999.19;5049541;28;20494;-81
2021/12/23 07:37:19;;;;;;;31.67;13.63;;;-3.00;99.90;;;-2.26;100.00;97992.72;5040858;28;20447;-81
2021/12/23 07:39:50;;;;;;;25.87;14.17;;;-2.80;99.90;;;-2.19;100.00;97994.75;5050688;28;20462;-81
2021/12/23 07:42:32;;;;;;;30.60;14.03;;;-2.80;99.90;;;-2.11;100.00;97989.06;5041899;28;20479;-80
2021/12/23 07:45:05;;;;;;;38.63;16.53;;;-2.70;99.90;;;-2.06;100.00;97989.56;5049917;28;20456;-80
2021/12/23 07:47:36;;;;;;;37.17;17.07;;;-2.60;99.90;;;-1.98;100.00;97983.88;5050028;28;20456;-81
2021/12/23 07:50:09;;;;;;;35.73;16.40;;;-2.50;99.90;;;-1.92;100.00;97996.25;5047912;28;20476;-81
2021/12/23 07:52:39;;;;;;;35.50;15.63;;;-2.50;99.90;;;-1.84;100.00;97992.19;5050100;28;20888;-81
2021/12/23 07:55:13;;;;;;;37.83;19.00;;;-2.30;99.90;;;-1.79;100.00;97990.13;5049657;28;20490;-80
2021/12/23 07:57:43;;;;;;;31.93;15.00;;;-2.30;99.90;;;-1.71;100.00;97980.13;5049065;28;20475;-80
2021/12/23 08:00:15;;;;;;;31.50;13.70;;;-2.10;99.90;;;-1.58;100.00;97991.13;5046976;28;20523;-80
2021/12/23 08:02:45;;;;;;;35.23;16.90;;;-2.10;99.90;;;-1.50;100.00;97987.16;5048612;28;20453;-81
2021/12/23 08:05:15;;;;;;;40.67;15.60;;;-2.00;99.90;;;-1.46;100.00;97991.13;5047810;28;20460;-82
2021/12/23 08:07:45;;;;;;;35.87;16.97;;;-1.90;99.90;;;-1.42;100.00;97990.78;5047285;28;20516;-81
2021/12/23 08:10:16;;;;;;;35.43;15.70;;;-1.90;99.90;;;-1.35;100.00;97978.31;5040788;28;20456;-81
2021/12/23 08:12:46;;;;;;;45.33;17.13;;;-1.80;99.90;;;-1.27;100.00;97978.56;5045564;28;20457;-81
2021/12/23 08:15:17;;;;;;;45.20;19.67;;;-1.70;99.90;;;-1.23;100.00;97987.66;5049728;28;20517;-80
2021/12/23 08:17:47;;;;;;;37.00;17.90;;;-1.70;99.90;;;-1.17;100.00;97984.63;5045917;28;20461;-81
2021/12/23 08:20:18;;;;;;;40.00;17.70;;;-1.60;99.90;;;-1.13;100.00;97986.88;5045368;28;20495;-80
2021/12/23 08:22:47;;;;;;;35.03;17.60;;;-1.50;99.90;;;-1.10;100.00;97981.50;5046557;28;20455;-80
2021/12/23 08:25:19;;;;;;;40.67;18.00;;;-1.50;99.90;;;-1.04;100.00;97975.06;5049727;28;20463;-80
2021/12/23 08:27:49;;;;;;;46.90;18.90;;;-1.50;99.90;;;-0.99;100.00;97972.16;5049760;28;20456;-80
2021/12/23 08:30:20;;;;;;;40.00;17.97;;;-1.50;99.90;;;-0.97;100.00;97971.09;5049162;28;20448;-81
2021/12/23 08:32:51;;;;;;;33.60;16.87;;;-1.50;99.90;;;-0.94;100.00;97960.63;5051349;28;20446;-80
2021/12/23 08:35:21;;;;;;;39.23;16.77;;;-1.50;99.90;;;-0.90;100.00;97961.22;5050524;28;20515;-80
2021/12/23 08:37:51;;;;;;;42.00;18.20;;;-1.40;99.90;;;-0.86;100.00;97963.41;5046660;28;20859;-80
2021/12/23 08:40:25;;;;;;;40.37;17.57;;;-1.40;99.90;;;-0.81;100.00;97953.63;5052816;28;20468;-81
2021/12/23 08:42:56;;;;;;;36.93;17.83;;;-1.30;99.90;;;-0.78;100.00;97955.94;5053100;28;20795;-81
2021/12/23 08:45:28;;;;;;;37.60;17.67;;;-1.30;99.90;;;-0.75;100.00;97954.88;5053191;28;20461;-80
2021/12/23 08:47:58;;;;;;;37.93;19.00;;;-1.30;99.90;;;-0.71;100.00;97956.28;5054788;28;20448;-81
2021/12/23 08:50:31;;;;;;;43.80;17.93;;;-1.30;99.90;;;-0.68;100.00;97954.28;5052762;28;20503;-80
2021/12/23 08:53:02;;;;;;;39.37;18.10;;;-1.20;99.90;;;-0.65;100.00;97954.06;5056184;28;20449;-80
2021/12/23 08:55:33;;;;;;;34.57;17.70;;;-1.20;99.90;;;-0.61;100.00;97952.88;5052832;28;20449;-81
2021/12/23 08:58:04;;;;;;;37.90;18.80;;;-1.20;99.90;;;-0.58;100.00;97950.06;5055503;28;21074;-81
2021/12/23 09:00:37;;;;;;;41.60;20.10;;;-1.10;99.90;;;-0.52;100.00;97959.03;5043102;28;20473;-81
2021/12/23 09:03:10;;;;;;;45.57;20.17;;;-1.10;99.90;;;-0.49;100.00;97961.38;5053824;28;20587;-80
2021/12/23 09:05:43;;;;;;;39.47;18.40;;;-1.00;99.90;;;-0.45;100.00;97959.41;5050109;28;20850;-81
2021/12/23 09:08:13;;;;;;;35.80;17.67;;;-0.90;99.90;;;-0.40;100.00;97960.66;5051283;28;20532;-81
2021/12/23 09:10:44;;;;;;;37.80;18.43;;;-0.90;99.90;;;-0.36;100.00;97969.75;5051039;28;20945;-81
2021/12/23 09:13:13;;;;;;;41.30;18.90;;;-0.90;99.90;;;-0.32;100.00;97971.16;5051182;28;20460;-80
2021/12/23 09:15:44;;;;;;;45.50;19.40;;;-0.80;99.90;;;-0.26;100.00;97962.94;5045907;28;20435;-80
2021/12/23 09:18:14;;;;;;;43.80;18.60;;;-0.80;99.90;;;-0.22;100.00;97966.91;5048505;28;20462;-81
2021/12/23 09:20:46;;;;;;;40.57;17.97;;;-0.70;99.90;;;-0.17;100.00;97971.66;5051526;28;20441;-81
2021/12/23 09:23:16;;;;;;;43.53;19.60;;;-0.60;99.90;;;-0.12;100.00;97961.84;5053687;28;20445;-81
2021/12/23 09:25:48;;;;;;;40.60;19.30;;;-0.60;99.90;;;-0.07;100.00;97962.31;5051643;28;21039;-81
2021/12/23 09:33:52;;;;;;;39.07;17.97;;;-0.50;99.90;;;0.04;100.00;97941.69;5051839;28;21358;-81
2021/12/23 09:36:22;;;;;;;41.03;18.83;;;-0.40;99.90;;;0.08;100.00;97934.53;5051748;28;20543;-81
2021/12/23 09:38:53;;;;;;;38.80;18.80;;;-0.40;99.90;;;0.12;100.00;97936.75;5050833;28;20485;-81
2021/12/23 09:41:25;;;;;;;40.87;19.50;;;-0.40;99.90;;;0.16;100.00;97943.28;5051789;28;20998;-81
2021/12/23 09:43:56;;;;;;;37.20;18.73;;;-0.40;99.90;;;0.20;100.00;97943.84;5048499;28;20455;-81
2021/12/23 09:46:26;;;;;;;44.20;19.50;;;-0.30;99.90;;;0.23;100.00;97944.41;5051731;28;20453;-81
2021/12/23 09:48:57;;;;;;;36.13;19.27;;;-0.30;99.90;;;0.28;100.00;97942.25;5048370;28;20468;-81
2021/12/23 09:51:29;;;;;;;47.73;19.80;;;-0.20;99.90;;;0.30;100.00;97940.38;5051898;28;20502;-81
2021/12/23 09:54:04;;;;;;;42.07;19.27;;;-0.20;99.90;;;0.35;100.00;97938.25;5051823;28;20914;-81
2021/12/23 09:56:37;;;;;;;36.50;19.30;;;-0.10;99.90;;;0.39;100.00;97936.22;5051510;28;20531;-81
2021/12/23 09:59:08;;;;;;;37.00;18.57;;;-0.10;99.90;;;0.41;100.00;97932.63;5051054;28;21045;-81
2021/12/23 10:01:39;;;;;;;35.80;17.17;;;-0.10;99.90;;;0.44;100.00;97931.53;5050815;28;20457;-81
2021/12/23 10:04:10;;;;;;;36.73;17.90;;;-0.10;99.90;;;0.50;100.00;97931.84;5051326;28;20535;-80
2021/12/23 10:06:40;;;;;;;37.40;18.43;;;0.00;99.90;;;0.55;100.00;97934.03;5052827;28;20820;-81
2021/12/23 10:09:11;;;;;;;45.60;18.17;;;0.00;99.90;;;0.60;100.00;97936.22;5051421;28;20499;-80
2021/12/23 10:12:04;;;;;;;37.67;18.60;;;0.10;99.90;;;0.64;100.00;97930.69;5045620;28;20458;-81
2021/12/23 10:31:47;;;;;;;35.03;18.00;;;0.50;99.90;;;0.98;100.00;97895.19;5050907;28;20536;-81
2021/12/23 10:37:17;;;;;;;33.97;18.30;;;0.60;99.90;;;1.05;100.00;97893.75;5050521;28;20540;-81
2021/12/23 10:39:51;;;;;;;37.93;18.30;;;0.60;99.90;;;1.08;100.00;97880.59;5050744;28;20455;-81
2021/12/23 10:42:24;;;;;;;34.20;17.27;;;0.60;99.90;;;1.12;100.00;97884.53;5050539;28;20855;-81
2021/12/23 10:45:00;;;;;;;42.90;18.20;;;0.70;99.90;;;1.12;100.00;97881.97;5053773;28;20949;-81